createdAt,value
2023-04-15T00:04:46.984Z,1007.15
2023-04-15T00:10:31.574Z,1007.13
2023-04-15T00:16:18.422Z,1007.19
2023-04-15T00:22:01.555Z,1007.17
2023-04-15T00:27:49.247Z,1007.21
2023-04-15T00:33:31.596Z,1007.15
2023-04-15T00:38:44.294Z,1007.09
2023-04-15T00:44:32.959Z,1007.08
2023-04-15T00:50:18.738Z,1007.02
2023-04-15T00:56:05.092Z,1007.00
2023-04-15T01:01:53.249Z,1007.04
2023-04-15T01:07:10.056Z,1007.08
2023-04-15T01:13:01.640Z,1007.13
2023-04-15T01:18:10.529Z,1007.14
2023-04-15T01:23:20.250Z,1007.17
2023-04-15T01:28:45.396Z,1007.15
2023-04-15T01:34:02.974Z,1007.17
2023-04-15T01:39:52.573Z,1007.10
2023-04-15T01:45:19.718Z,1007.14
2023-04-15T01:50:55.417Z,1007.14
2023-04-15T01:56:48.999Z,1007.21
2023-04-15T02:01:59.774Z,1007.17
2023-04-15T02:07:42.206Z,1007.19
2023-04-15T02:13:12.706Z,1007.26
2023-04-15T02:18:35.109Z,1007.27
2023-04-15T02:24:25.547Z,1007.31
2023-04-15T02:29:15.075Z,1007.29
2023-04-15T02:34:22.956Z,1007.28
2023-04-15T02:39:30.479Z,1007.22
2023-04-15T02:44:37.752Z,1007.27
2023-04-15T02:49:48.073Z,1007.25
2023-04-15T02:54:55.519Z,1007.27
2023-04-15T03:00:02.855Z,1007.28
2023-04-15T03:05:10.273Z,1007.24
2023-04-15T03:10:18.471Z,1007.23
2023-04-15T03:15:25.774Z,1007.23
2023-04-15T03:20:33.137Z,1007.28
2023-04-15T03:25:40.305Z,1007.30
2023-04-15T03:30:47.523Z,1007.27
2023-04-15T03:35:54.820Z,1007.19
2023-04-15T03:41:02.098Z,1007.19
2023-04-15T03:46:09.337Z,1007.24
2023-04-15T03:51:16.532Z,1007.23
2023-04-15T03:56:23.731Z,1007.32
2023-04-15T04:01:31.006Z,1007.29
2023-04-15T04:06:38.306Z,1007.22
2023-04-15T04:11:45.577Z,1007.27
2023-04-15T04:16:52.817Z,1007.35
2023-04-15T04:21:59.973Z,1007.46
2023-04-15T04:27:07.215Z,1007.47
2023-04-15T04:32:14.542Z,1007.46
2023-04-15T04:37:21.713Z,1007.52
2023-04-15T04:42:28.880Z,1007.53
2023-04-15T04:47:36.150Z,1007.59
2023-04-15T04:52:43.352Z,1007.57
2023-04-15T04:57:50.544Z,1007.57
2023-04-15T05:02:57.932Z,1007.61
2023-04-15T05:08:05.305Z,1007.55
2023-04-15T05:13:12.580Z,1007.58
2023-04-15T05:18:19.828Z,1007.59
2023-04-15T05:23:27.079Z,1007.59
2023-04-15T05:28:34.382Z,1007.47
2023-04-15T05:33:42.024Z,1007.47
2023-04-15T05:38:49.545Z,1007.47
2023-04-15T05:44:06.125Z,1007.46
2023-04-15T05:49:13.954Z,1007.52
2023-04-15T05:54:21.389Z,1007.52
2023-04-15T05:59:29.075Z,1007.49
2023-04-15T06:04:44.882Z,1007.48
2023-04-15T06:09:52.445Z,1007.43
2023-04-15T06:15:07.515Z,1007.40
2023-04-15T06:20:15.009Z,1007.37
2023-04-15T06:25:57.975Z,1007.38
2023-04-15T06:31:08.720Z,1007.43
2023-04-15T06:36:56.387Z,1007.51
2023-04-15T06:42:12.052Z,1007.48
2023-04-15T06:47:37.135Z,1007.46
2023-04-15T06:52:32.018Z,1007.42
2023-04-15T06:57:39.323Z,1007.47
2023-04-15T07:02:46.687Z,1007.50
2023-04-15T07:07:54.111Z,1007.47
2023-04-15T07:13:11.248Z,1007.45
2023-04-15T07:18:53.679Z,1007.41
2023-04-15T07:24:01.141Z,1007.37
2023-04-15T07:29:16.272Z,1007.41
2023-04-15T07:35:05.665Z,1007.37
2023-04-15T07:40:28.325Z,1007.35
2023-04-15T07:45:36.087Z,1007.35
2023-04-15T07:51:02.290Z,1007.34
2023-04-15T07:56:09.974Z,1007.33
2023-04-15T08:01:52.553Z,1007.30
2023-04-15T08:07:39.321Z,1007.30
2023-04-15T08:12:46.589Z,1007.29
2023-04-15T08:17:54.117Z,1007.22
2023-04-15T08:23:06.267Z,1007.26
2023-04-15T08:28:28.942Z,1007.25
2023-04-15T08:33:36.289Z,1007.21
2023-04-15T08:38:43.455Z,1007.13
2023-04-15T08:43:50.715Z,1007.14
2023-04-15T08:48:57.986Z,1007.17
2023-04-15T08:54:05.092Z,1007.09
2023-04-15T08:59:12.278Z,1007.06
2023-04-15T09:04:19.672Z,1007.04
2023-04-15T09:09:26.652Z,1007.09
2023-04-15T09:14:33.914Z,1007.07
2023-04-15T09:19:42.723Z,1007.09
2023-04-15T09:24:49.884Z,1007.05
2023-04-15T09:29:57.103Z,1007.06
2023-04-15T09:35:04.281Z,1007.10
2023-04-15T09:40:11.443Z,1007.06
2023-04-15T09:45:18.637Z,1007.08
2023-04-15T09:50:25.840Z,1007.05
2023-04-15T09:55:32.995Z,1007.06
2023-04-15T10:00:40.309Z,1007.01
2023-04-15T10:05:48.806Z,1006.98
2023-04-15T10:10:55.969Z,1006.95
2023-04-15T10:16:03.220Z,1006.93
2023-04-15T10:21:10.515Z,1006.91
2023-04-15T10:26:17.775Z,1006.95
2023-04-15T10:31:24.925Z,1006.94
2023-04-15T10:36:32.116Z,1006.95
2023-04-15T10:41:39.299Z,1006.95
2023-04-15T10:46:46.625Z,1006.92
2023-04-15T10:51:53.815Z,1006.98
2023-04-15T10:57:00.946Z,1006.99
2023-04-15T11:02:08.327Z,1007.04
2023-04-15T11:07:15.543Z,1007.05
2023-04-15T11:12:22.709Z,1007.07
2023-04-15T11:17:30.024Z,1007.17
2023-04-15T11:22:37.176Z,1007.20
2023-04-15T11:27:44.333Z,1007.21
2023-04-15T11:32:51.541Z,1007.27
2023-04-15T11:37:58.745Z,1007.29
2023-04-15T11:43:06.006Z,1007.34
2023-04-15T11:48:13.252Z,1007.36
2023-04-15T11:53:20.513Z,1007.41
2023-04-15T11:58:27.760Z,1007.47
2023-04-15T12:03:35.078Z,1007.57
2023-04-15T12:08:42.266Z,1007.64
2023-04-15T12:13:49.482Z,1007.69
2023-04-15T12:18:56.708Z,1007.79
2023-04-15T12:24:04.366Z,1007.84
2023-04-15T12:29:11.095Z,1007.86
2023-04-15T12:34:20.184Z,1007.98
2023-04-15T12:39:29.281Z,1008.03
2023-04-15T12:44:34.650Z,1008.11
2023-04-15T12:49:41.862Z,1008.19
2023-04-15T12:54:49.155Z,1008.24
2023-04-15T12:59:56.429Z,1008.28
2023-04-15T13:05:03.650Z,1008.36
2023-04-15T13:10:10.964Z,1008.37
2023-04-15T13:15:18.703Z,1008.41
2023-04-15T13:20:25.950Z,1008.47
2023-04-15T13:25:33.191Z,1008.44
2023-04-15T13:30:40.509Z,1008.53
2023-04-15T13:35:47.692Z,1008.54
2023-04-15T13:40:55.153Z,1008.56
2023-04-15T13:46:02.524Z,1008.58
2023-04-15T13:51:12.970Z,1008.59
2023-04-15T13:56:20.250Z,1008.64
2023-04-15T14:01:27.551Z,1008.68
2023-04-15T14:06:34.744Z,1008.67
2023-04-15T14:11:42.173Z,1008.73
2023-04-15T14:16:49.534Z,1008.81
2023-04-15T14:21:56.769Z,1008.87
2023-04-15T14:27:06.019Z,1008.96
2023-04-15T14:32:14.404Z,1009.04
2023-04-15T14:37:20.726Z,1009.13
2023-04-15T14:42:28.266Z,1009.18
2023-04-15T14:47:35.533Z,1009.26
2023-04-15T14:52:42.816Z,1009.41
2023-04-15T14:57:50.309Z,1009.46
2023-04-15T15:02:57.636Z,1009.55
2023-04-15T15:08:04.849Z,1009.63
2023-04-15T15:13:12.252Z,1009.78
2023-04-15T15:18:19.794Z,1009.77
2023-04-15T15:23:27.729Z,1009.87
2023-04-15T15:28:35.068Z,1009.95
2023-04-15T15:33:42.236Z,1009.96
2023-04-15T15:38:49.456Z,1010.07
2023-04-15T15:43:56.705Z,1010.13
2023-04-15T15:49:04.038Z,1010.23
2023-04-15T15:54:11.127Z,1010.25
2023-04-15T15:59:18.344Z,1010.30
2023-04-15T16:04:25.768Z,1010.41
2023-04-15T16:09:33.134Z,1010.45
2023-04-15T16:14:40.525Z,1010.52
2023-04-15T16:19:58.001Z,1010.60
2023-04-15T16:24:54.940Z,1010.60
2023-04-15T16:30:02.199Z,1010.64
2023-04-15T16:35:09.628Z,1010.64
2023-04-15T16:40:17.251Z,1010.72
2023-04-15T16:45:27.932Z,1010.83
2023-04-15T16:50:35.433Z,1010.93
2023-04-15T16:55:43.071Z,1010.97
2023-04-15T17:00:50.485Z,1011.14
2023-04-15T17:05:57.644Z,1011.29
2023-04-15T17:11:04.850Z,1011.46
2023-04-15T17:16:12.139Z,1011.63
2023-04-15T17:21:19.591Z,1011.78
2023-04-15T17:26:27.011Z,1012.17
2023-04-15T17:31:34.484Z,1012.58
2023-04-15T17:36:41.718Z,1012.85
2023-04-15T17:41:49.426Z,1013.18
2023-04-15T17:46:57.205Z,1013.36
2023-04-15T17:52:04.475Z,1013.50
2023-04-15T17:57:11.966Z,1013.55
2023-04-15T18:02:19.817Z,1013.65
2023-04-15T18:07:27.061Z,1013.79
2023-04-15T18:12:34.702Z,1013.94
2023-04-15T18:17:42.351Z,1014.02
2023-04-15T18:22:50.036Z,1013.91
2023-04-15T18:27:57.539Z,1013.93
2023-04-15T18:33:05.189Z,1013.89
2023-04-15T18:38:12.708Z,1013.87
2023-04-15T18:43:20.396Z,1013.94
2023-04-15T18:48:28.072Z,1013.94
2023-04-15T18:53:35.723Z,1014.07
2023-04-15T18:59:26.317Z,1014.13
2023-04-15T19:03:51.181Z,1014.14
2023-04-15T19:08:58.595Z,1014.17
2023-04-15T19:14:05.826Z,1014.29
2023-04-15T19:19:13.478Z,1014.37
2023-04-15T19:24:20.816Z,1014.49
2023-04-15T19:29:29.131Z,1014.57
2023-04-15T19:34:36.952Z,1014.62
2023-04-15T19:39:44.573Z,1014.67
2023-04-15T19:44:52.279Z,1014.81
2023-04-15T19:50:00.035Z,1014.81
2023-04-15T19:55:07.722Z,1014.88
2023-04-15T20:00:15.332Z,1014.96
2023-04-15T20:05:22.997Z,1014.98
2023-04-15T20:10:30.558Z,1014.92
2023-04-15T20:15:38.294Z,1014.97
2023-04-15T20:20:45.910Z,1015.07
2023-04-15T20:25:53.495Z,1015.08
2023-04-15T20:31:01.246Z,1015.08
2023-04-15T20:36:09.890Z,1015.08
2023-04-15T20:41:17.585Z,1015.07
2023-04-15T20:46:27.176Z,1015.14
2023-04-15T20:51:32.523Z,1015.16
2023-04-15T20:56:40.216Z,1015.18
2023-04-15T21:01:47.670Z,1015.16
2023-04-15T21:06:56.099Z,1015.16
2023-04-15T21:12:03.327Z,1015.13
2023-04-15T21:17:11.374Z,1015.21
2023-04-15T21:22:17.902Z,1015.25
2023-04-15T21:27:25.085Z,1015.24
2023-04-15T21:32:32.277Z,1015.25
2023-04-15T21:37:39.550Z,1015.30
2023-04-15T21:42:47.343Z,1015.26
2023-04-15T21:48:05.845Z,1015.31
2023-04-15T21:53:01.910Z,1015.41
2023-04-15T21:58:09.252Z,1015.41
2023-04-15T22:03:16.611Z,1015.54
2023-04-15T22:08:23.794Z,1015.48
2023-04-15T22:13:31.030Z,1015.61
2023-04-15T22:18:38.323Z,1015.63
2023-04-15T22:23:45.586Z,1015.64
2023-04-15T22:28:52.830Z,1015.70
2023-04-15T22:34:00.176Z,1015.65
2023-04-15T22:39:07.899Z,1015.76
2023-04-15T22:44:14.924Z,1015.72
2023-04-15T22:49:22.121Z,1015.80
2023-04-15T22:54:29.863Z,1015.75
2023-04-15T22:59:37.133Z,1015.78
2023-04-15T23:04:44.589Z,1015.81
2023-04-15T23:09:56.021Z,1015.82
2023-04-15T23:15:04.180Z,1015.84
2023-04-15T23:20:46.622Z,1015.94
2023-04-15T23:26:17.086Z,1015.92
2023-04-15T23:31:12.444Z,1015.97
2023-04-15T23:36:35.444Z,1016.08
2023-04-15T23:42:03.928Z,1016.12
2023-04-15T23:46:56.053Z,1016.10
2023-04-15T23:52:12.144Z,1016.13
2023-04-15T23:57:40.816Z,1016.14
